createdAt,value
2024-04-14T00:00:36.059Z,0.00
2024-04-14T00:01:36.357Z,0.00
2024-04-14T00:02:36.764Z,0.00
2024-04-14T00:03:37.149Z,0.00
2024-04-14T00:04:37.620Z,0.00
2024-04-14T00:05:37.864Z,0.00
2024-04-14T00:06:38.205Z,0.00
2024-04-14T00:07:38.560Z,0.00
2024-04-14T00:08:38.899Z,0.00
2024-04-14T00:09:39.293Z,0.00
2024-04-14T00:10:39.624Z,0.00
2024-04-14T00:11:40.011Z,0.00
2024-04-14T00:12:40.392Z,0.00
2024-04-14T00:13:40.706Z,0.00
2024-04-14T00:14:41.065Z,0.00
2024-04-14T00:15:41.540Z,0.00
2024-04-14T00:16:41.796Z,0.00
2024-04-14T00:17:42.270Z,0.00
2024-04-14T00:18:42.616Z,0.00
2024-04-14T00:19:42.868Z,0.00
2024-04-14T00:20:43.249Z,0.00
2024-04-14T00:21:43.674Z,0.00
2024-04-14T00:22:43.989Z,0.00
2024-04-14T00:23:44.366Z,0.00
2024-04-14T00:24:44.719Z,0.00
2024-04-14T00:25:45.078Z,0.00
2024-04-14T00:26:45.456Z,0.00
2024-04-14T00:27:45.859Z,0.00
2024-04-14T00:28:46.177Z,0.00
2024-04-14T00:29:46.537Z,0.00
2024-04-14T00:30:46.913Z,0.00
2024-04-14T00:31:47.259Z,0.00
2024-04-14T00:32:47.739Z,0.00
2024-04-14T00:33:48.085Z,0.00
2024-04-14T00:34:48.361Z,0.00
2024-04-14T00:35:48.725Z,0.00
2024-04-14T00:36:49.160Z,0.00
2024-04-14T00:37:49.477Z,0.00
2024-04-14T00:38:49.843Z,0.00
2024-04-14T00:39:50.293Z,0.00
2024-04-14T00:40:50.541Z,0.00
2024-04-14T00:41:50.905Z,0.00
2024-04-14T00:42:51.346Z,0.00
2024-04-14T00:43:51.640Z,0.00
2024-04-14T00:44:52.003Z,0.00
2024-04-14T00:45:52.479Z,0.00
2024-04-14T00:46:52.743Z,0.00
2024-04-14T00:47:53.153Z,0.00
2024-04-14T00:48:53.460Z,0.00
2024-04-14T00:49:53.757Z,0.00
2024-04-14T00:50:54.168Z,0.00
2024-04-14T00:51:54.593Z,0.00
2024-04-14T00:52:54.885Z,0.00
2024-04-14T00:53:55.212Z,0.00
2024-04-14T00:54:55.589Z,0.00
2024-04-14T00:55:55.924Z,0.00
2024-04-14T00:56:56.296Z,0.00
2024-04-14T00:57:56.757Z,0.00
2024-04-14T00:58:57.015Z,0.00
2024-04-14T00:59:57.404Z,0.00
2024-04-14T01:00:57.850Z,0.00
2024-04-14T01:01:58.095Z,0.00
2024-04-14T01:02:58.496Z,0.00
2024-04-14T01:03:58.949Z,0.00
2024-04-14T01:04:59.172Z,0.00
2024-04-14T01:05:59.516Z,0.00
2024-04-14T01:06:59.928Z,0.00
2024-04-14T01:08:00.264Z,0.00
2024-04-14T01:09:00.616Z,0.00
2024-04-14T01:10:01.077Z,0.00
2024-04-14T01:11:01.391Z,0.00
2024-04-14T01:12:01.670Z,0.00
2024-04-14T01:13:02.129Z,0.00
2024-04-14T01:14:02.379Z,0.00
2024-04-14T01:15:02.739Z,0.00
2024-04-14T01:16:03.159Z,0.00
2024-04-14T01:17:03.501Z,0.00
2024-04-14T01:18:03.986Z,0.00
2024-04-14T01:19:04.331Z,0.00
2024-04-14T01:20:04.542Z,0.00
2024-04-14T01:21:04.903Z,0.00
2024-04-14T01:22:05.307Z,0.00
2024-04-14T01:23:05.673Z,0.00
2024-04-14T01:24:05.999Z,0.00
2024-04-14T01:25:06.842Z,0.00
2024-04-14T01:26:06.702Z,0.00
2024-04-14T01:27:07.084Z,0.00
2024-04-14T01:28:07.459Z,0.00
2024-04-14T01:29:07.786Z,0.00
2024-04-14T01:30:08.146Z,0.00
2024-04-14T01:31:08.511Z,0.00
2024-04-14T01:32:08.958Z,0.00
2024-04-14T01:33:09.293Z,0.00
2024-04-14T01:34:09.567Z,0.00
2024-04-14T01:35:09.943Z,0.00
2024-04-14T01:36:10.308Z,0.00
2024-04-14T01:37:10.679Z,0.00
2024-04-14T01:38:19.169Z,0.00
2024-04-14T01:39:11.407Z,0.00
2024-04-14T01:40:11.760Z,0.00
2024-04-14T01:41:12.117Z,0.00
2024-04-14T01:42:12.476Z,0.00
2024-04-14T01:43:12.874Z,0.00
2024-04-14T01:44:13.203Z,0.00
2024-04-14T01:45:13.571Z,0.00
2024-04-14T01:46:13.945Z,0.00
2024-04-14T01:47:14.301Z,0.00
2024-04-14T01:48:14.772Z,0.00
2024-04-14T01:49:15.096Z,0.00
2024-04-14T01:50:15.432Z,0.00
2024-04-14T01:51:15.779Z,0.00
2024-04-14T01:52:16.154Z,0.00
2024-04-14T01:53:16.511Z,0.00
2024-04-14T01:54:16.849Z,0.00
2024-04-14T01:55:17.200Z,0.00
2024-04-14T01:56:17.541Z,0.00
2024-04-14T01:57:17.918Z,0.00
2024-04-14T01:58:18.288Z,0.00
2024-04-14T01:59:18.625Z,0.00
2024-04-14T02:00:18.994Z,0.00
2024-04-14T02:01:19.402Z,0.00
2024-04-14T02:02:19.728Z,0.00
2024-04-14T02:03:20.161Z,0.00
2024-04-14T02:04:20.655Z,0.00
2024-04-14T02:05:20.795Z,0.00
2024-04-14T02:06:21.176Z,0.00
2024-04-14T02:07:21.529Z,0.00
2024-04-14T02:08:21.908Z,0.00
2024-04-14T02:09:22.284Z,0.00
2024-04-14T02:10:22.612Z,0.00
2024-04-14T02:11:22.963Z,0.00
2024-04-14T02:12:23.334Z,0.00
2024-04-14T02:13:23.740Z,0.00
2024-04-14T02:14:24.018Z,0.00
2024-04-14T02:15:24.422Z,0.00
2024-04-14T02:16:24.725Z,0.00
2024-04-14T02:17:25.120Z,0.00
2024-04-14T02:18:25.657Z,0.00
2024-04-14T02:19:25.820Z,0.00
2024-04-14T02:20:26.194Z,0.00
2024-04-14T02:21:26.588Z,0.00
2024-04-14T02:22:26.936Z,0.00
2024-04-14T02:23:27.324Z,0.00
2024-04-14T02:24:27.667Z,0.00
2024-04-14T02:25:28.029Z,0.00
2024-04-14T02:26:28.380Z,0.00
2024-04-14T02:27:28.824Z,0.00
2024-04-14T02:28:29.144Z,0.00
2024-04-14T02:29:29.488Z,0.00
2024-04-14T02:30:29.880Z,0.00
2024-04-14T02:31:30.191Z,0.00
2024-04-14T02:32:30.609Z,0.00
2024-04-14T02:33:30.926Z,0.00
2024-04-14T02:34:31.247Z,0.00
2024-04-14T02:35:31.604Z,0.00
2024-04-14T02:36:32.008Z,0.00
2024-04-14T02:37:32.303Z,0.00
2024-04-14T02:38:32.703Z,0.00
2024-04-14T02:39:33.049Z,0.00
2024-04-14T02:40:33.391Z,0.00
2024-04-14T02:41:33.753Z,0.00
2024-04-14T02:42:34.286Z,0.00
2024-04-14T02:43:34.645Z,0.00
2024-04-14T02:44:34.830Z,0.00
2024-04-14T02:45:35.201Z,0.00
2024-04-14T02:46:35.571Z,0.00
2024-04-14T02:47:35.990Z,0.00
2024-04-14T02:48:36.399Z,0.00
2024-04-14T02:49:36.657Z,0.00
2024-04-14T02:50:37.029Z,0.00
2024-04-14T02:51:37.411Z,0.00
2024-04-14T02:52:37.755Z,0.00
2024-04-14T02:53:38.136Z,0.00
2024-04-14T02:54:38.500Z,0.00
2024-04-14T02:55:38.807Z,0.00
2024-04-14T02:56:39.168Z,0.00
2024-04-14T02:57:39.566Z,0.00
2024-04-14T02:58:39.949Z,0.00
2024-04-14T02:59:40.261Z,0.00
2024-04-14T03:00:40.678Z,0.00
2024-04-14T03:01:40.998Z,0.00
2024-04-14T03:02:41.356Z,0.00
2024-04-14T03:03:41.800Z,0.00
2024-04-14T03:04:42.127Z,0.00
2024-04-14T03:05:42.423Z,0.00
2024-04-14T03:06:42.847Z,0.00
2024-04-14T03:07:43.123Z,0.00
2024-04-14T03:08:43.507Z,0.00
2024-04-14T03:09:43.887Z,0.00
2024-04-14T03:10:44.179Z,0.00
2024-04-14T03:11:44.535Z,0.00
2024-04-14T03:12:44.907Z,0.00
2024-04-14T03:13:45.288Z,0.00
2024-04-14T03:14:45.631Z,0.00
2024-04-14T03:15:45.988Z,0.00
2024-04-14T03:16:46.404Z,0.00
2024-04-14T03:17:46.728Z,0.00
2024-04-14T03:18:47.119Z,0.00
2024-04-14T03:19:47.438Z,0.00
2024-04-14T03:20:47.789Z,0.00
2024-04-14T03:21:48.243Z,0.00
2024-04-14T03:22:48.485Z,0.00
2024-04-14T03:23:48.860Z,0.00
2024-04-14T03:24:49.267Z,0.00
2024-04-14T03:25:49.581Z,0.00
2024-04-14T03:26:49.961Z,0.00
2024-04-14T03:27:50.405Z,0.00
2024-04-14T03:28:50.722Z,0.00
2024-04-14T03:29:50.998Z,0.00
2024-04-14T03:30:51.455Z,0.00
2024-04-14T03:31:51.759Z,0.00
2024-04-14T03:32:52.143Z,0.00
2024-04-14T03:33:52.473Z,0.00
2024-04-14T03:34:52.809Z,0.00
2024-04-14T03:35:53.166Z,0.00
2024-04-14T03:36:53.606Z,0.00
2024-04-14T03:37:53.931Z,0.00
2024-04-14T03:38:54.275Z,0.00
2024-04-14T03:39:54.736Z,0.00
2024-04-14T03:40:54.991Z,0.00
2024-04-14T03:41:55.331Z,0.00
2024-04-14T03:42:55.767Z,0.00
2024-04-14T03:43:56.037Z,0.00
2024-04-14T03:44:56.414Z,0.00
2024-04-14T03:45:57.150Z,0.00
2024-04-14T03:46:56.861Z,1.00
2024-04-14T03:47:57.093Z,1.00
2024-04-14T03:48:57.335Z,1.00
2024-04-14T03:49:57.516Z,2.00
2024-04-14T03:50:57.821Z,2.00
2024-04-14T03:51:58.124Z,2.00
2024-04-14T03:52:58.377Z,3.00
2024-04-14T03:53:58.659Z,3.00
2024-04-14T03:54:58.848Z,5.00
2024-04-14T03:55:59.004Z,7.00
2024-04-14T03:56:59.285Z,5.00
2024-04-14T03:57:59.492Z,7.00
2024-04-14T03:58:59.618Z,10.00
2024-04-14T03:59:59.911Z,5.00
2024-04-14T04:01:00.259Z,9.00
2024-04-14T04:02:00.390Z,11.00
2024-04-14T04:03:00.599Z,17.00
2024-04-14T04:04:00.750Z,18.00
2024-04-14T04:05:00.876Z,14.00
2024-04-14T04:06:01.056Z,27.00
2024-04-14T04:07:01.238Z,27.00
2024-04-14T04:08:03.850Z,29.00
2024-04-14T04:09:01.677Z,43.00
2024-04-14T04:10:02.007Z,45.00
2024-04-14T04:11:02.269Z,52.00
2024-04-14T04:12:02.410Z,59.00
2024-04-14T04:13:02.781Z,60.00
2024-04-14T04:14:02.877Z,69.00
2024-04-14T04:15:03.062Z,89.00
2024-04-14T04:16:03.249Z,93.00
2024-04-14T04:17:03.376Z,98.00
2024-04-14T04:18:03.700Z,112.00
2024-04-14T04:19:11.332Z,117.00
2024-04-14T04:20:04.138Z,127.00
2024-04-14T04:21:04.203Z,142.00
2024-04-14T04:22:04.462Z,155.00
2024-04-14T04:23:04.596Z,174.00
2024-04-14T04:24:04.835Z,180.00
2024-04-14T04:25:05.042Z,199.00
2024-04-14T04:26:05.262Z,219.00
2024-04-14T04:27:05.516Z,236.00
2024-04-14T04:28:05.776Z,256.00
2024-04-14T04:29:05.989Z,273.00
2024-04-14T04:30:06.288Z,294.00
2024-04-14T04:31:06.491Z,313.00
2024-04-14T04:32:06.762Z,334.00
2024-04-14T04:33:06.993Z,362.00
2024-04-14T04:34:07.294Z,383.00
2024-04-14T04:35:07.420Z,406.00
2024-04-14T04:36:07.712Z,435.00
2024-04-14T04:37:07.890Z,454.00
2024-04-14T04:38:08.207Z,471.00
2024-04-14T04:39:08.380Z,505.00
2024-04-14T04:40:08.726Z,523.00
2024-04-14T04:41:08.960Z,552.00
2024-04-14T04:42:09.238Z,571.00
2024-04-14T04:43:09.462Z,611.00
2024-04-14T04:44:09.615Z,613.00
2024-04-14T04:45:09.799Z,648.00
2024-04-14T04:46:10.119Z,665.00
2024-04-14T04:47:10.304Z,699.00
2024-04-14T04:48:10.713Z,738.00
2024-04-14T04:49:10.878Z,769.00
2024-04-14T04:50:11.152Z,816.00
2024-04-14T04:51:11.333Z,848.00
2024-04-14T04:52:11.526Z,893.00
2024-04-14T04:53:11.839Z,937.00
2024-04-14T04:54:11.984Z,973.00
2024-04-14T04:55:12.159Z,1019.00
2024-04-14T04:56:12.349Z,1047.00
2024-04-14T04:57:12.513Z,1079.00
2024-04-14T04:58:12.717Z,1116.00
2024-04-14T04:59:12.873Z,1157.00
2024-04-14T05:00:13.038Z,1208.00
2024-04-14T05:01:13.303Z,1244.00
2024-04-14T05:02:13.420Z,1264.00
2024-04-14T05:03:13.748Z,1309.00
2024-04-14T05:04:13.831Z,1330.00
2024-04-14T05:05:13.969Z,1393.00
2024-04-14T05:06:14.117Z,1467.00
2024-04-14T05:07:14.313Z,1519.00
2024-04-14T05:08:14.524Z,1591.00
2024-04-14T05:09:14.673Z,1685.00
2024-04-14T05:10:14.868Z,1767.00
2024-04-14T05:11:15.176Z,1802.00
2024-04-14T05:12:15.245Z,1822.00
2024-04-14T05:13:15.457Z,1858.00
2024-04-14T05:14:15.641Z,1907.00
2024-04-14T05:15:15.822Z,1943.00
2024-04-14T05:16:16.009Z,1968.00
2024-04-14T05:17:16.197Z,2025.00
2024-04-14T05:18:16.470Z,2044.00
2024-04-14T05:19:16.632Z,2069.00
2024-04-14T05:20:16.793Z,2097.00
2024-04-14T05:21:16.992Z,2116.00
2024-04-14T05:22:17.160Z,2130.00
2024-04-14T05:23:17.354Z,2156.00
2024-04-14T05:24:17.545Z,2202.00
2024-04-14T05:25:17.738Z,2213.00
2024-04-14T05:26:17.846Z,2231.00
2024-04-14T05:27:18.075Z,2248.00
2024-04-14T05:28:18.256Z,2249.00
2024-04-14T05:29:18.402Z,2279.00
2024-04-14T05:30:18.664Z,2316.00
2024-04-14T05:31:18.779Z,2343.00
2024-04-14T05:32:18.998Z,2390.00
2024-04-14T05:33:19.193Z,2450.00
2024-04-14T05:34:19.354Z,2486.00
2024-04-14T05:35:19.517Z,2527.00
2024-04-14T05:36:19.710Z,2560.00
2024-04-14T05:37:19.914Z,2589.00
2024-04-14T05:38:20.124Z,2595.00
2024-04-14T05:39:20.283Z,2607.00
2024-04-14T05:40:20.481Z,2657.00
2024-04-14T05:41:20.672Z,2715.00
2024-04-14T05:42:20.843Z,2793.00
2024-04-14T05:43:21.069Z,2822.00
2024-04-14T05:44:21.214Z,2870.00
2024-04-14T05:45:21.380Z,2952.00
2024-04-14T05:46:21.561Z,3014.00
2024-04-14T05:47:21.762Z,3107.00
2024-04-14T05:48:21.979Z,3222.00
2024-04-14T05:49:22.213Z,3304.00
2024-04-14T05:50:22.292Z,3320.00
2024-04-14T05:51:22.474Z,3300.00
2024-04-14T05:52:22.700Z,3272.00
2024-04-14T05:53:22.878Z,3269.00
2024-04-14T05:54:23.051Z,3289.00
2024-04-14T05:55:24.265Z,3316.00
2024-04-14T05:56:23.404Z,3384.00
2024-04-14T05:57:23.576Z,3470.00
2024-04-14T05:58:23.795Z,3560.00
2024-04-14T05:59:23.923Z,3639.00
2024-04-14T06:00:24.121Z,3698.00
2024-04-14T06:01:24.339Z,3692.00
2024-04-14T06:02:24.467Z,3605.00
2024-04-14T06:03:24.761Z,3549.00
2024-04-14T06:04:25.008Z,3596.00
2024-04-14T06:05:25.010Z,3633.00
2024-04-14T06:06:25.209Z,3610.00
2024-04-14T06:07:25.378Z,3595.00
2024-04-14T06:08:25.586Z,3661.00
2024-04-14T06:09:25.763Z,3782.00
2024-04-14T06:10:25.960Z,3823.00
2024-04-14T06:11:26.136Z,3825.00
2024-04-14T06:12:26.365Z,3837.00
2024-04-14T06:13:26.516Z,3838.00
2024-04-14T06:14:26.699Z,3806.00
2024-04-14T06:15:27.017Z,3813.00
2024-04-14T06:16:27.133Z,3861.00
2024-04-14T06:17:27.292Z,3905.00
2024-04-14T06:18:27.485Z,3923.00
2024-04-14T06:19:27.624Z,3941.00
2024-04-14T06:20:27.821Z,3987.00
2024-04-14T06:21:28.046Z,4008.00
2024-04-14T06:22:28.165Z,3979.00
2024-04-14T06:23:28.373Z,3983.00
2024-04-14T06:24:28.575Z,4064.00
2024-04-14T06:25:28.750Z,4199.00
2024-04-14T06:26:28.928Z,4324.00
2024-04-14T06:27:29.152Z,4428.00
2024-04-14T06:28:29.411Z,4413.00
2024-04-14T06:29:29.943Z,4310.00
2024-04-14T06:30:29.759Z,4245.00
2024-04-14T06:31:29.868Z,4281.00
2024-04-14T06:32:30.131Z,4350.00
2024-04-14T06:33:30.346Z,4448.00
2024-04-14T06:34:30.401Z,4531.00
2024-04-14T06:35:30.571Z,4632.00
2024-04-14T06:36:30.813Z,4732.00
2024-04-14T06:37:30.957Z,4961.00
2024-04-14T06:38:31.147Z,5101.00
2024-04-14T06:39:31.326Z,5125.00
2024-04-14T06:40:31.491Z,5076.00
2024-04-14T06:41:31.684Z,5002.00
2024-04-14T06:42:31.942Z,4831.00
2024-04-14T06:43:32.078Z,4772.00
2024-04-14T06:44:32.232Z,4712.00
2024-04-14T06:45:32.444Z,4621.00
2024-04-14T06:46:32.587Z,4608.00
2024-04-14T06:47:35.047Z,4595.00
2024-04-14T06:48:32.997Z,4561.00
2024-04-14T06:49:33.116Z,4505.00
2024-04-14T06:50:33.301Z,4543.00
2024-04-14T06:51:33.511Z,4715.00
2024-04-14T06:52:33.686Z,4858.00
2024-04-14T06:53:33.908Z,4785.00
2024-04-14T06:54:34.177Z,5025.00
2024-04-14T06:55:36.262Z,5271.00
2024-04-14T06:56:34.429Z,5583.00
2024-04-14T06:57:34.640Z,5921.00
2024-04-14T06:58:34.897Z,5899.00
2024-04-14T06:59:34.974Z,5203.00
2024-04-14T07:00:35.307Z,5194.00
2024-04-14T07:01:35.491Z,4951.00
2024-04-14T07:02:35.683Z,5253.00
2024-04-14T07:03:35.803Z,4916.00
2024-04-14T07:04:35.943Z,5532.00
2024-04-14T07:05:36.059Z,6175.00
2024-04-14T07:06:36.262Z,5556.00
2024-04-14T07:07:37.055Z,6056.00
2024-04-14T07:08:36.653Z,5881.00
2024-04-14T07:09:36.814Z,5691.00
2024-04-14T07:10:37.309Z,5295.00
2024-04-14T07:11:37.206Z,6068.00
2024-04-14T07:12:37.385Z,5723.00
2024-04-14T07:13:37.570Z,5836.00
2024-04-14T07:14:37.718Z,6136.00
2024-04-14T07:15:37.927Z,6032.00
2024-04-14T07:16:38.100Z,5975.00
2024-04-14T07:17:38.362Z,5436.00
2024-04-14T07:18:38.626Z,5784.00
2024-04-14T07:19:38.654Z,5486.00
2024-04-14T07:20:38.844Z,5434.00
2024-04-14T07:21:39.065Z,5796.00
2024-04-14T07:22:39.251Z,5332.00
2024-04-14T07:23:39.424Z,5699.00
2024-04-14T07:24:39.590Z,5637.00
2024-04-14T07:25:39.754Z,6015.00
2024-04-14T07:26:39.939Z,6047.00
2024-04-14T07:27:40.123Z,6068.00
2024-04-14T07:28:40.337Z,6691.00
2024-04-14T07:29:40.480Z,5976.00
2024-04-14T07:30:40.999Z,5920.00
2024-04-14T07:31:40.846Z,6288.00
2024-04-14T07:32:41.109Z,5899.00
2024-04-14T07:33:41.288Z,5905.00
2024-04-14T07:34:41.406Z,5767.00
2024-04-14T07:35:41.589Z,5556.00
2024-04-14T07:36:41.791Z,6186.00
2024-04-14T07:37:41.959Z,6038.00
2024-04-14T07:38:42.137Z,5092.00
2024-04-14T07:39:42.306Z,4993.00
2024-04-14T07:40:42.476Z,4720.00
2024-04-14T07:41:42.665Z,4785.00
2024-04-14T07:42:42.963Z,4769.00
2024-04-14T07:43:43.083Z,4805.00
2024-04-14T07:44:43.220Z,4634.00
2024-04-14T07:45:43.446Z,4459.00
2024-04-14T07:46:43.621Z,4803.00
2024-04-14T07:47:45.014Z,5236.00
2024-04-14T07:48:44.061Z,5320.00
2024-04-14T07:49:44.130Z,5011.00
2024-04-14T07:50:44.342Z,4248.00
2024-04-14T07:51:44.534Z,4613.00
2024-04-14T07:52:44.726Z,4748.00
2024-04-14T07:53:44.875Z,4901.00
2024-04-14T07:54:45.111Z,5077.00
2024-04-14T07:55:45.266Z,4910.00
2024-04-14T07:56:45.453Z,4633.00
2024-04-14T07:57:45.691Z,4628.00
2024-04-14T07:58:45.874Z,4620.00
2024-04-14T07:59:46.704Z,5031.00
2024-04-14T08:00:46.207Z,4815.00
2024-04-14T08:01:46.385Z,4952.00
2024-04-14T08:02:46.545Z,5114.00
2024-04-14T08:03:53.451Z,4843.00
2024-04-14T08:04:46.950Z,5489.00
2024-04-14T08:05:47.055Z,5463.00
2024-04-14T08:06:47.312Z,5135.00
2024-04-14T08:07:47.450Z,5102.00
2024-04-14T08:08:47.684Z,4978.00
2024-04-14T08:09:47.834Z,4367.00
2024-04-14T08:10:48.010Z,4079.00
2024-04-14T08:11:48.167Z,4615.00
2024-04-14T08:12:48.506Z,5041.00
2024-04-14T08:13:48.581Z,5116.00
2024-04-14T08:14:48.732Z,5490.00
2024-04-14T08:15:48.949Z,5327.00
2024-04-14T08:16:49.170Z,5349.00
2024-04-14T08:17:49.284Z,5750.00
2024-04-14T08:18:49.494Z,4996.00
2024-04-14T08:19:49.635Z,4963.00
2024-04-14T08:20:49.830Z,6185.00
2024-04-14T08:21:50.061Z,6184.00
2024-04-14T08:22:50.235Z,4855.00
2024-04-14T08:23:50.473Z,4589.00
2024-04-14T08:24:50.622Z,5832.00
2024-04-14T08:25:50.795Z,4944.00
2024-04-14T08:26:50.984Z,4116.00
2024-04-14T08:27:51.191Z,3939.00
2024-04-14T08:28:51.400Z,4262.00
2024-04-14T08:29:51.543Z,5091.00
2024-04-14T08:30:51.764Z,4527.00
2024-04-14T08:31:52.173Z,5221.00
2024-04-14T08:32:52.175Z,6020.00
2024-04-14T08:33:52.347Z,7395.00
2024-04-14T08:34:52.434Z,6785.00
2024-04-14T08:35:52.627Z,7826.00
2024-04-14T08:36:52.846Z,5699.00
2024-04-14T08:37:52.988Z,5990.00
2024-04-14T08:38:53.191Z,7480.00
2024-04-14T08:39:53.390Z,6640.00
2024-04-14T08:40:53.531Z,6784.00
2024-04-14T08:41:53.727Z,5833.00
2024-04-14T08:42:53.930Z,6118.00
2024-04-14T08:43:54.128Z,5332.00
2024-04-14T08:44:54.295Z,6638.00
2024-04-14T08:45:54.598Z,6446.00
2024-04-14T08:46:54.704Z,6952.00
2024-04-14T08:47:54.889Z,7124.00
2024-04-14T08:48:55.092Z,6096.00
2024-04-14T08:49:55.270Z,6943.00
2024-04-14T08:50:55.408Z,8370.00
2024-04-14T08:51:55.745Z,8200.00
2024-04-14T08:52:55.772Z,6719.00
2024-04-14T08:53:58.378Z,6653.00
2024-04-14T08:54:56.165Z,7390.00
2024-04-14T08:55:56.338Z,7483.00
2024-04-14T08:56:56.546Z,7754.00
2024-04-14T08:57:56.770Z,9072.00
2024-04-14T08:58:56.921Z,7922.00
2024-04-14T08:59:57.083Z,7744.00
2024-04-14T09:00:57.296Z,8280.00
2024-04-14T09:01:57.507Z,8690.00
2024-04-14T09:02:57.641Z,8822.00
2024-04-14T09:03:57.903Z,8227.00
2024-04-14T09:04:57.981Z,9513.00
2024-04-14T09:05:58.225Z,9373.00
2024-04-14T09:06:58.380Z,9181.00
2024-04-14T09:07:58.519Z,9139.00
2024-04-14T09:08:58.687Z,7868.00
2024-04-14T09:09:58.876Z,8606.00
2024-04-14T09:10:59.042Z,8383.00
2024-04-14T09:11:59.215Z,8292.00
2024-04-14T09:12:59.465Z,7117.00
2024-04-14T09:13:59.624Z,6125.00
2024-04-14T09:14:59.782Z,5812.00
2024-04-14T09:16:00.027Z,6210.00
2024-04-14T09:17:00.152Z,6556.00
2024-04-14T09:18:00.441Z,8042.00
2024-04-14T09:19:00.617Z,7919.00
2024-04-14T09:20:00.684Z,8053.00
2024-04-14T09:21:00.857Z,8897.00
2024-04-14T09:22:01.119Z,6546.00
2024-04-14T09:23:01.253Z,6355.00
2024-04-14T09:24:01.424Z,6126.00
2024-04-14T09:25:01.677Z,7303.00
2024-04-14T09:26:01.776Z,6048.00
2024-04-14T09:27:01.974Z,6414.00
2024-04-14T09:28:02.258Z,7738.00
2024-04-14T09:29:02.390Z,8387.00
2024-04-14T09:30:02.542Z,9445.00
2024-04-14T09:31:02.757Z,8817.00
2024-04-14T09:32:05.676Z,7600.00
2024-04-14T09:33:03.174Z,7625.00
2024-04-14T09:34:03.361Z,10108.00
2024-04-14T09:35:03.464Z,8038.00
2024-04-14T09:36:03.651Z,11263.00
2024-04-14T09:37:03.956Z,6984.00
2024-04-14T09:38:04.080Z,11315.00
2024-04-14T09:39:04.217Z,7085.00
2024-04-14T09:40:04.539Z,12707.00
2024-04-14T09:41:04.579Z,6534.00
2024-04-14T09:42:04.761Z,7329.00
2024-04-14T09:43:05.013Z,7865.00
2024-04-14T09:44:05.179Z,10159.00
2024-04-14T09:45:05.331Z,8539.00
2024-04-14T09:46:05.637Z,12746.00
2024-04-14T09:47:05.727Z,13792.00
2024-04-14T09:48:05.913Z,9979.00
2024-04-14T09:49:06.288Z,15493.00
2024-04-14T09:50:06.231Z,13563.00
2024-04-14T09:51:06.524Z,14564.00
2024-04-14T09:52:06.704Z,8808.00
2024-04-14T09:53:06.797Z,8984.00
2024-04-14T09:54:07.004Z,8403.00
2024-04-14T09:55:07.224Z,7507.00
2024-04-14T09:56:07.370Z,10525.00
2024-04-14T09:57:07.550Z,15543.00
2024-04-14T09:58:07.834Z,13534.00
2024-04-14T09:59:07.994Z,14773.00
2024-04-14T10:00:08.270Z,7355.00
2024-04-14T10:01:08.455Z,8607.00
2024-04-14T10:02:08.562Z,14528.00
2024-04-14T10:03:08.735Z,8987.00
2024-04-14T10:04:09.094Z,8855.00
2024-04-14T10:05:09.075Z,8762.00
2024-04-14T10:06:09.303Z,14995.00
2024-04-14T10:07:09.474Z,8740.00
2024-04-14T10:08:09.650Z,10329.00
2024-04-14T10:09:09.846Z,10110.00
2024-04-14T10:10:10.091Z,10098.00
2024-04-14T10:11:10.214Z,9762.00
2024-04-14T10:12:10.372Z,8313.00
2024-04-14T10:13:10.573Z,7908.00
2024-04-14T10:14:10.765Z,9306.00
2024-04-14T10:15:10.941Z,15999.00
2024-04-14T10:16:11.268Z,18742.00
2024-04-14T10:17:11.301Z,11121.00
2024-04-14T10:18:11.496Z,22363.00
2024-04-14T10:19:11.707Z,7836.00
2024-04-14T10:20:11.866Z,11094.00
2024-04-14T10:21:12.036Z,7424.00
2024-04-14T10:22:12.276Z,8805.00
2024-04-14T10:23:12.424Z,8870.00
2024-04-14T10:24:12.589Z,9317.00
2024-04-14T10:25:12.798Z,9100.00
2024-04-14T10:26:12.937Z,8292.00
2024-04-14T10:27:13.107Z,8473.00
2024-04-14T10:28:13.316Z,81518.00
2024-04-14T10:29:13.519Z,77035.00
2024-04-14T10:30:13.684Z,75599.00
2024-04-14T10:31:13.900Z,77725.00
2024-04-14T10:32:14.071Z,75766.00
2024-04-14T10:33:14.406Z,81819.00
2024-04-14T10:34:14.569Z,9048.00
2024-04-14T10:35:14.651Z,10427.00
2024-04-14T10:36:14.834Z,9572.00
2024-04-14T10:37:15.048Z,75358.00
2024-04-14T10:38:15.246Z,75348.00
2024-04-14T10:39:15.537Z,11618.00
2024-04-14T10:40:15.618Z,80504.00
2024-04-14T10:41:15.831Z,15298.00
2024-04-14T10:42:16.006Z,30424.00
2024-04-14T10:43:16.310Z,75591.00
2024-04-14T10:44:16.463Z,76645.00
2024-04-14T10:45:16.613Z,77406.00
2024-04-14T10:46:16.883Z,75712.00
2024-04-14T10:47:17.092Z,76117.00
2024-04-14T10:48:17.236Z,20328.00
2024-04-14T10:49:17.458Z,11586.00
2024-04-14T10:50:17.633Z,13485.00
2024-04-14T10:51:17.806Z,24954.00
2024-04-14T10:52:17.995Z,9148.00
2024-04-14T10:53:18.178Z,9951.00
2024-04-14T10:54:18.415Z,9690.00
2024-04-14T10:55:18.608Z,76734.00
2024-04-14T10:56:18.764Z,11798.00
2024-04-14T10:57:18.940Z,74290.00
2024-04-14T10:58:19.135Z,9520.00
2024-04-14T10:59:19.367Z,18101.00
2024-04-14T11:00:19.534Z,15453.00
2024-04-14T11:01:19.802Z,14941.00
2024-04-14T11:02:19.928Z,73342.00
2024-04-14T11:03:20.164Z,12220.00
2024-04-14T11:04:20.419Z,19110.00
2024-04-14T11:05:20.481Z,13124.00
2024-04-14T11:06:20.666Z,25649.00
2024-04-14T11:07:20.864Z,14698.00
2024-04-14T11:08:21.096Z,75797.00
2024-04-14T11:09:21.341Z,10676.00
2024-04-14T11:10:21.491Z,9562.00
2024-04-14T11:11:21.766Z,8418.00
2024-04-14T11:12:21.842Z,8649.00
2024-04-14T11:13:22.057Z,79369.00
2024-04-14T11:14:22.293Z,82328.00
2024-04-14T11:15:22.441Z,82720.00
2024-04-14T11:16:22.782Z,11104.00
2024-04-14T11:17:22.828Z,81967.00
2024-04-14T11:18:23.004Z,82288.00
2024-04-14T11:19:23.232Z,82951.00
2024-04-14T11:20:23.380Z,83198.00
2024-04-14T11:21:23.571Z,82870.00
2024-04-14T11:22:23.790Z,83185.00
2024-04-14T11:23:24.005Z,77740.00
2024-04-14T11:24:24.258Z,15450.00
2024-04-14T11:25:24.429Z,9053.00
2024-04-14T11:26:24.618Z,9890.00
2024-04-14T11:27:24.796Z,12303.00
2024-04-14T11:28:25.063Z,76713.00
2024-04-14T11:29:25.198Z,81280.00
2024-04-14T11:30:25.385Z,83391.00
2024-04-14T11:31:25.585Z,82449.00
2024-04-14T11:32:25.850Z,82167.00
2024-04-14T11:33:26.120Z,81731.00
2024-04-14T11:34:26.291Z,81805.00
2024-04-14T11:35:26.451Z,82000.00
2024-04-14T11:36:26.666Z,83264.00
2024-04-14T11:37:26.872Z,81269.00
2024-04-14T11:38:27.096Z,83452.00
2024-04-14T11:39:27.286Z,82227.00
2024-04-14T11:40:27.487Z,9691.00
2024-04-14T11:41:27.659Z,80543.00
2024-04-14T11:42:27.867Z,79198.00
2024-04-14T11:43:28.059Z,79719.00
2024-04-14T11:44:28.298Z,82087.00
2024-04-14T11:45:28.585Z,83305.00
2024-04-14T11:46:28.714Z,83115.00
2024-04-14T11:47:28.960Z,82958.00
2024-04-14T11:48:29.135Z,75468.00
2024-04-14T11:49:29.347Z,17078.00
2024-04-14T11:50:29.505Z,12199.00
2024-04-14T11:51:29.762Z,12574.00
2024-04-14T11:52:29.918Z,13037.00
2024-04-14T11:53:30.110Z,11916.00
2024-04-14T11:54:30.355Z,14620.00
2024-04-14T11:55:30.507Z,10405.00
2024-04-14T11:56:30.708Z,14640.00
2024-04-14T11:57:30.993Z,29545.00
2024-04-14T11:58:31.145Z,11330.00
2024-04-14T11:59:31.398Z,11263.00
2024-04-14T12:00:31.577Z,9812.00
2024-04-14T12:01:31.826Z,81594.00
2024-04-14T12:02:32.035Z,77535.00
2024-04-14T12:03:32.106Z,9452.00
2024-04-14T12:04:32.368Z,9690.00
2024-04-14T12:05:32.465Z,18478.00
2024-04-14T12:06:32.665Z,9196.00
2024-04-14T12:07:32.829Z,10584.00
2024-04-14T12:08:33.027Z,10949.00
2024-04-14T12:09:33.283Z,18540.00
2024-04-14T12:10:33.387Z,16729.00
2024-04-14T12:11:33.549Z,15199.00
2024-04-14T12:12:33.779Z,22753.00
2024-04-14T12:13:33.919Z,9229.00
2024-04-14T12:14:34.129Z,23382.00
2024-04-14T12:15:34.413Z,7629.00
2024-04-14T12:16:34.557Z,23765.00
2024-04-14T12:17:34.764Z,23882.00
2024-04-14T12:18:34.913Z,14267.00
2024-04-14T12:19:35.897Z,9362.00
2024-04-14T12:20:35.286Z,8749.00
2024-04-14T12:21:35.544Z,20744.00
2024-04-14T12:22:35.644Z,24559.00
2024-04-14T12:23:36.745Z,8812.00
2024-04-14T12:24:36.067Z,7739.00
2024-04-14T12:25:36.181Z,12952.00
2024-04-14T12:26:36.362Z,7548.00
2024-04-14T12:27:36.624Z,19311.00
2024-04-14T12:28:36.747Z,18929.00